Time;durP1;ratioP1;P1;durP2;ratioP2;P2;SDS_P1;SDS_P2;PMS_P1;PMS_P2;Temp;Humidity;BMP_temperature;BMP_pressure;BME280_temperature;BME280_humidity;BME280_pressure;Samples;Min_cycle;Max_cycle;Signal;HPM_P1;HPM_P2
2023/03/13 00:01:34;;;;;;;43.20;18.77;;;;;;;;;;4943296;28;20488;-75
2023/03/13 00:04:01;;;;;;;42.97;17.27;;;;;;;;;;4945257;28;20547;-75
2023/03/13 00:06:31;;;;;;;48.63;20.53;;;;;;;;;;4946469;28;20455;-74
2023/03/13 00:08:59;;;;;;;45.13;20.50;;;;;;;;;;4964474;28;20448;-75
2023/03/13 00:11:26;;;;;;;50.43;20.07;;;;;;;;;;4961973;28;20860;-73
2023/03/13 00:13:53;;;;;;;47.27;19.93;;;;;;;;;;4963756;28;20780;-75
2023/03/13 00:16:19;;;;;;;49.87;20.13;;;;;;;;;;4968567;28;20466;-75
2023/03/13 00:18:47;;;;;;;40.43;18.73;;;;;;;;;;4983879;28;20459;-75
2023/03/13 00:21:14;;;;;;;40.37;18.20;;;;;;;;;;4980923;28;20509;-74
2023/03/13 00:23:41;;;;;;;44.23;17.70;;;;;;;;;;4964193;28;20539;-74
2023/03/13 00:26:08;;;;;;;41.40;18.13;;;;;;;;;;4962646;28;20462;-74
2023/03/13 00:28:35;;;;;;;39.47;16.43;;;;;;;;;;4962381;28;20458;-74
2023/03/13 00:31:08;;;;;;;32.90;14.83;;;;;;;;;;4938813;28;21268;-74
2023/03/13 00:33:35;;;;;;;36.57;15.23;;;;;;;;;;4965962;28;20531;-74
2023/03/13 00:36:03;;;;;;;31.30;12.90;;;;;;;;;;4949218;28;21953;-74
2023/03/13 00:38:30;;;;;;;33.13;13.47;;;;;;;;;;4950601;28;20544;-74
2023/03/13 00:40:57;;;;;;;29.57;11.90;;;;;;;;;;4963872;28;20472;-73
2023/03/13 00:43:26;;;;;;;30.47;12.77;;;;;;;;;;4966675;28;20702;-74
2023/03/13 00:45:52;;;;;;;26.83;11.90;;;;;;;;;;4965130;28;20966;-74
2023/03/13 00:48:19;;;;;;;31.27;12.40;;;;;;;;;;4967940;28;20487;-74
2023/03/13 00:50:46;;;;;;;30.67;13.20;;;;;;;;;;4968299;28;20464;-75
2023/03/13 00:53:13;;;;;;;26.07;11.93;;;;;;;;;;4966958;28;20610;-74
2023/03/13 00:55:49;;;;;;;28.07;12.00;;;;;;;;;;4962870;28;20499;-75
2023/03/13 00:58:16;;;;;;;28.47;12.73;;;;;;;;;;4964774;28;20547;-74
2023/03/13 01:00:42;;;;;;;23.87;9.40;;;;;;;;;;4966621;28;20471;-75
2023/03/13 01:03:09;;;;;;;24.20;10.67;;;;;;;;;;4948169;28;20463;-75
2023/03/13 01:05:36;;;;;;;28.77;13.00;;;;;;;;;;4965632;28;20608;-75
2023/03/13 01:08:03;;;;;;;27.37;11.93;;;;;;;;;;4965616;28;20498;-74
2023/03/13 01:10:29;;;;;;;29.13;11.93;;;;;;;;;;4965659;28;20504;-75
2023/03/13 01:12:56;;;;;;;29.23;12.50;;;;;;;;;;4963172;28;20452;-75
2023/03/13 01:15:23;;;;;;;29.53;11.40;;;;;;;;;;4966898;28;20476;-75
2023/03/13 01:17:49;;;;;;;27.00;11.37;;;;;;;;;;4998075;28;21032;-73
2023/03/13 01:20:16;;;;;;;19.53;8.30;;;;;;;;;;4987858;28;20482;-75
2023/03/13 01:22:43;;;;;;;17.20;7.13;;;;;;;;;;4985982;28;20454;-75
2023/03/13 01:25:09;;;;;;;19.33;7.77;;;;;;;;;;4985287;28;20447;-74
2023/03/13 01:27:36;;;;;;;19.20;7.00;;;;;;;;;;4980721;28;20534;-75
2023/03/13 01:30:03;;;;;;;17.40;7.10;;;;;;;;;;4985043;28;20459;-75
2023/03/13 01:32:32;;;;;;;21.83;9.33;;;;;;;;;;4999478;28;20518;-75
2023/03/13 01:35:01;;;;;;;15.53;7.17;;;;;;;;;;4990563;28;20515;-74
2023/03/13 01:37:27;;;;;;;17.23;7.70;;;;;;;;;;4985740;28;20459;-75
2023/03/13 01:39:54;;;;;;;17.07;6.93;;;;;;;;;;4983184;28;21052;-74
2023/03/13 02:18:06;;;;;;;10.90;5.37;;;;;;;;;;4981889;28;20507;-75
2023/03/13 02:20:33;;;;;;;12.47;5.43;;;;;;;;;;4984001;28;20508;-75
2023/03/13 02:23:07;;;;;;;14.27;5.33;;;;;;;;;;4985807;28;20521;-74
2023/03/13 02:25:41;;;;;;;14.87;6.23;;;;;;;;;;4998144;28;20454;-75
2023/03/13 02:28:26;;;;;;;11.30;5.20;;;;;;;;;;4990996;28;212671;-75
2023/03/13 02:30:55;;;;;;;12.97;5.10;;;;;;;;;;5000643;28;20466;-75
2023/03/13 02:33:22;;;;;;;15.43;5.27;;;;;;;;;;4980868;28;20546;-74
2023/03/13 02:35:48;;;;;;;13.20;5.50;;;;;;;;;;4976802;28;20475;-75
2023/03/13 02:38:19;;;;;;;10.67;4.90;;;;;;;;;;4957179;28;20511;-75
2023/03/13 02:40:46;;;;;;;13.90;6.10;;;;;;;;;;4960778;28;20464;-75
2023/03/13 02:43:18;;;;;;;11.37;5.20;;;;;;;;;;4996308;28;20534;-75
2023/03/13 02:46:14;;;;;;;10.73;5.47;;;;;;;;;;4993270;28;20456;-74
2023/03/13 02:48:48;;;;;;;12.37;5.60;;;;;;;;;;4957627;28;20455;-75
2023/03/13 02:51:15;;;;;;;11.73;5.63;;;;;;;;;;4969743;28;20467;-75
2023/03/13 02:53:42;;;;;;;11.87;5.63;;;;;;;;;;4967964;28;20482;-74
2023/03/13 02:56:09;;;;;;;14.97;5.60;;;;;;;;;;4981079;28;20459;-74
2023/03/13 02:58:40;;;;;;;11.93;5.60;;;;;;;;;;4983241;28;20493;-76
2023/03/13 03:01:18;;;;;;;13.73;5.23;;;;;;;;;;4983922;28;20462;-74
2023/03/13 03:03:45;;;;;;;12.40;5.90;;;;;;;;;;4981033;28;20458;-75
2023/03/13 03:06:12;;;;;;;12.30;5.17;;;;;;;;;;4984319;28;20570;-76
2023/03/13 03:08:40;;;;;;;13.70;5.83;;;;;;;;;;4979165;28;20228;-75
2023/03/13 03:11:09;;;;;;;12.23;5.40;;;;;;;;;;4982386;28;20534;-75
2023/03/13 03:13:35;;;;;;;11.00;5.13;;;;;;;;;;4979733;28;20471;-75
2023/03/13 03:16:06;;;;;;;11.67;5.60;;;;;;;;;;4979575;28;20459;-76
2023/03/13 03:18:34;;;;;;;9.87;5.27;;;;;;;;;;4982295;28;20460;-75
2023/03/13 03:21:05;;;;;;;10.57;4.90;;;;;;;;;;4981179;28;21950;-76
2023/03/13 03:23:36;;;;;;;15.90;6.30;;;;;;;;;;4969615;28;20470;-74
2023/03/13 03:26:03;;;;;;;12.07;7.03;;;;;;;;;;4975075;28;20548;-74
2023/03/13 03:28:31;;;;;;;13.10;5.23;;;;;;;;;;4982077;28;20520;-73
2023/03/13 03:31:02;;;;;;;11.80;6.10;;;;;;;;;;4980772;28;20553;-74
2023/03/13 03:33:30;;;;;;;11.60;5.53;;;;;;;;;;4984045;28;20455;-76
2023/03/13 03:36:00;;;;;;;11.83;6.53;;;;;;;;;;4975668;28;21004;-78
2023/03/13 03:38:28;;;;;;;15.47;7.10;;;;;;;;;;4975629;28;20459;-77
2023/03/13 03:40:55;;;;;;;13.20;7.20;;;;;;;;;;4976778;28;20478;-77
2023/03/13 03:43:22;;;;;;;16.07;7.43;;;;;;;;;;4975378;28;20439;-76
2023/03/13 03:45:49;;;;;;;11.90;6.40;;;;;;;;;;4962385;28;20451;-76
2023/03/13 03:48:16;;;;;;;9.67;5.00;;;;;;;;;;4976166;28;20509;-75
2023/03/13 03:50:43;;;;;;;16.07;7.03;;;;;;;;;;4960356;28;20482;-75
2023/03/13 03:53:12;;;;;;;20.83;8.13;;;;;;;;;;4976278;28;20502;-74
2023/03/13 03:55:39;;;;;;;16.70;7.73;;;;;;;;;;4961881;28;20575;-79
2023/03/13 03:58:06;;;;;;;13.63;7.40;;;;;;;;;;4960336;28;20530;-75
2023/03/13 04:00:59;;;;;;;15.37;6.27;;;;;;;;;;4971055;28;20470;-74
2023/03/13 04:03:26;;;;;;;17.87;7.83;;;;;;;;;;4979338;28;20472;-74
2023/03/13 04:05:52;;;;;;;16.23;8.07;;;;;;;;;;4984138;28;20466;-73
2023/03/13 04:08:22;;;;;;;19.03;9.00;;;;;;;;;;4984896;28;20467;-72
2023/03/13 04:10:48;;;;;;;16.70;8.70;;;;;;;;;;4977770;28;20506;-76
2023/03/13 04:13:17;;;;;;;17.67;8.77;;;;;;;;;;4937763;28;20573;-71
2023/03/13 04:15:44;;;;;;;17.17;9.27;;;;;;;;;;4975578;28;20469;-74
2023/03/13 04:18:11;;;;;;;21.00;8.40;;;;;;;;;;4947222;28;20593;-75
2023/03/13 04:20:38;;;;;;;20.23;9.00;;;;;;;;;;4956838;28;20477;-76
2023/03/13 04:23:04;;;;;;;18.90;7.93;;;;;;;;;;4963991;28;20497;-74
2023/03/13 04:25:31;;;;;;;20.33;9.60;;;;;;;;;;4954772;28;21104;-73
2023/03/13 04:27:59;;;;;;;19.63;9.50;;;;;;;;;;4959060;28;24164;-76
2023/03/13 04:30:33;;;;;;;19.00;8.67;;;;;;;;;;4960743;28;20474;-72
2023/03/13 04:33:24;;;;;;;24.97;9.77;;;;;;;;;;4933982;28;20504;-74
2023/03/13 04:36:11;;;;;;;16.70;8.83;;;;;;;;;;4895169;28;20451;-72
2023/03/13 04:38:47;;;;;;;19.57;9.63;;;;;;;;;;4947871;28;20451;-80
2023/03/13 04:41:34;;;;;;;19.50;8.70;;;;;;;;;;4939171;28;20495;-76
2023/03/13 04:44:15;;;;;;;19.83;9.27;;;;;;;;;;4943385;28;219855;-76
2023/03/13 04:47:14;;;;;;;21.00;9.33;;;;;;;;;;4933403;28;20450;-75
2023/03/13 04:50:07;;;;;;;17.63;7.50;;;;;;;;;;4946322;28;20472;-75
2023/03/13 04:52:54;;;;;;;16.87;8.70;;;;;;;;;;4917183;28;20821;-78
2023/03/13 04:55:31;;;;;;;16.73;7.00;;;;;;;;;;4974328;28;20223;-76
2023/03/13 04:58:05;;;;;;;20.87;9.93;;;;;;;;;;4944742;28;20460;-73
2023/03/13 05:00:45;;;;;;;21.47;9.97;;;;;;;;;;4944134;28;20509;-77
2023/03/13 05:03:34;;;;;;;22.13;10.50;;;;;;;;;;4977735;28;20505;-76
2023/03/13 05:06:09;;;;;;;20.50;7.47;;;;;;;;;;4930967;28;20835;-77
2023/03/13 05:08:38;;;;;;;20.23;10.13;;;;;;;;;;4932182;28;20562;-77
2023/03/13 05:11:23;;;;;;;21.87;9.93;;;;;;;;;;4961005;28;20474;-77
2023/03/13 05:14:18;;;;;;;14.33;7.23;;;;;;;;;;4941433;28;639832;-79
2023/03/13 05:16:54;;;;;;;20.83;8.93;;;;;;;;;;4960152;28;20446;-79
2023/03/13 05:19:47;;;;;;;11.83;5.57;;;;;;;;;;4943526;28;20479;-76
2023/03/13 05:22:27;;;;;;;22.17;10.53;;;;;;;;;;4944542;28;20476;-78
2023/03/13 05:25:13;;;;;;;21.07;10.50;;;;;;;;;;4963378;28;20462;-75
2023/03/13 05:27:40;;;;;;;23.17;10.23;;;;;;;;;;4969063;28;20983;-75
2023/03/13 05:30:30;;;;;;;24.70;11.00;;;;;;;;;;4935608;28;20474;-75
2023/03/13 05:33:33;;;;;;;25.53;11.43;;;;;;;;;;4829991;28;20454;-74
2023/03/13 05:36:18;;;;;;;19.37;7.23;;;;;;;;;;4976558;28;20237;-73
2023/03/13 05:39:06;;;;;;;23.77;11.33;;;;;;;;;;4990262;28;20494;-74
2023/03/13 05:41:49;;;;;;;18.93;9.03;;;;;;;;;;4958186;28;215267;-74
2023/03/13 05:44:25;;;;;;;23.87;11.27;;;;;;;;;;4909439;28;221484;-74
2023/03/13 05:47:01;;;;;;;14.70;7.50;;;;;;;;;;4948251;28;20462;-74
2023/03/13 05:49:43;;;;;;;24.17;10.97;;;;;;;;;;4949793;28;20470;-74
2023/03/13 05:52:23;;;;;;;20.57;9.33;;;;;;;;;;4972192;28;222530;-74
2023/03/13 05:55:17;;;;;;;24.80;9.47;;;;;;;;;;4891047;28;20516;-72
2023/03/13 05:58:05;;;;;;;12.93;6.57;;;;;;;;;;4951365;28;20463;-71
2023/03/13 06:00:50;;;;;;;10.37;5.33;;;;;;;;;;4980985;28;20779;-72
2023/03/13 06:03:29;;;;;;;24.37;10.63;;;;;;;;;;4961821;28;20222;-72
2023/03/13 06:05:58;;;;;;;22.07;10.20;;;;;;;;;;4922396;28;20514;-72
2023/03/13 06:08:32;;;;;;;22.90;9.20;;;;;;;;;;4979147;28;20460;-74
2023/03/13 06:11:02;;;;;;;25.63;10.43;;;;;;;;;;4950129;28;20645;-73
2023/03/13 06:13:30;;;;;;;25.73;11.40;;;;;;;;;;4951123;28;20462;-72
2023/03/13 06:16:01;;;;;;;11.87;6.47;;;;;;;;;;4950536;28;20551;-72
2023/03/13 06:18:39;;;;;;;22.20;9.53;;;;;;;;;;4980042;28;20984;-72
2023/03/13 06:21:05;;;;;;;34.67;13.73;;;;;;;;;;4981341;28;20486;-72
2023/03/13 06:23:32;;;;;;;31.50;12.80;;;;;;;;;;4973291;28;20231;-72
2023/03/13 06:25:59;;;;;;;21.43;7.37;;;;;;;;;;4981877;28;20625;-73
2023/03/13 06:28:26;;;;;;;34.53;13.73;;;;;;;;;;4980381;28;20463;-75
2023/03/13 06:30:52;;;;;;;33.73;8.90;;;;;;;;;;4982100;28;20464;-73
2023/03/13 06:33:19;;;;;;;28.03;10.90;;;;;;;;;;4977553;28;20562;-74
2023/03/13 06:35:46;;;;;;;18.03;8.80;;;;;;;;;;4950794;28;20470;-75
2023/03/13 06:38:25;;;;;;;22.17;10.50;;;;;;;;;;4966711;28;21158;-72
2023/03/13 06:40:51;;;;;;;20.03;9.07;;;;;;;;;;4981244;28;20467;-74
2023/03/13 06:43:18;;;;;;;19.53;8.63;;;;;;;;;;4994729;28;20457;-73
2023/03/13 06:45:45;;;;;;;24.73;9.73;;;;;;;;;;4952010;28;20506;-73
2023/03/13 06:48:12;;;;;;;24.37;10.90;;;;;;;;;;4980247;28;20532;-72
2023/03/13 06:50:39;;;;;;;18.27;5.27;;;;;;;;;;4961239;28;20447;-72
2023/03/13 06:53:06;;;;;;;18.50;8.00;;;;;;;;;;4981159;28;20464;-72
2023/03/13 06:55:33;;;;;;;27.00;10.43;;;;;;;;;;4978960;28;21717;-72
2023/03/13 06:57:59;;;;;;;32.53;11.67;;;;;;;;;;4963629;28;20453;-72
2023/03/13 07:00:26;;;;;;;36.57;14.80;;;;;;;;;;4981426;28;20532;-71
2023/03/13 07:02:53;;;;;;;26.77;12.00;;;;;;;;;;4914592;28;20487;-71
2023/03/13 07:05:20;;;;;;;17.93;8.37;;;;;;;;;;4978265;28;20462;-71
2023/03/13 07:07:47;;;;;;;14.20;7.13;;;;;;;;;;4980816;28;20463;-71
2023/03/13 07:10:13;;;;;;;33.10;13.33;;;;;;;;;;4979476;28;20467;-71
2023/03/13 07:12:41;;;;;;;20.50;8.97;;;;;;;;;;4966806;28;20231;-71
2023/03/13 07:15:08;;;;;;;17.17;6.10;;;;;;;;;;4970879;28;20234;-71
2023/03/13 07:17:36;;;;;;;23.47;10.00;;;;;;;;;;4968993;28;20474;-74
2023/03/13 07:20:09;;;;;;;16.70;7.17;;;;;;;;;;4905243;28;20455;-72
2023/03/13 07:22:39;;;;;;;24.17;9.70;;;;;;;;;;4976039;28;20474;-72
2023/03/13 07:25:06;;;;;;;28.90;12.03;;;;;;;;;;4951539;28;20981;-75
2023/03/13 07:27:33;;;;;;;20.97;9.77;;;;;;;;;;4980323;28;20253;-76
2023/03/13 07:30:00;;;;;;;15.83;7.20;;;;;;;;;;4964293;28;20231;-75
2023/03/13 07:32:32;;;;;;;18.37;8.33;;;;;;;;;;4964456;28;20475;-74
2023/03/13 07:34:59;;;;;;;23.73;12.00;;;;;;;;;;4977346;28;20853;-74
2023/03/13 07:37:25;;;;;;;17.13;8.23;;;;;;;;;;4979525;28;20806;-73
2023/03/13 07:39:53;;;;;;;21.87;10.03;;;;;;;;;;4972135;28;20459;-75
2023/03/13 07:42:19;;;;;;;20.57;7.97;;;;;;;;;;4961435;28;20968;-74
2023/03/13 07:44:47;;;;;;;23.17;9.70;;;;;;;;;;4974809;28;20545;-73
2023/03/13 07:47:15;;;;;;;14.30;6.00;;;;;;;;;;4970154;28;220392;-73
2023/03/13 07:49:45;;;;;;;27.77;11.73;;;;;;;;;;4959769;28;20596;-76
2023/03/13 07:52:12;;;;;;;18.50;8.43;;;;;;;;;;4976563;28;20470;-71
2023/03/13 07:54:40;;;;;;;21.53;9.63;;;;;;;;;;4960049;28;20473;-72
2023/03/13 07:57:08;;;;;;;20.77;9.87;;;;;;;;;;4971602;28;20463;-76
2023/03/13 07:59:37;;;;;;;16.47;7.63;;;;;;;;;;4960500;28;20228;-74
2023/03/13 08:02:05;;;;;;;15.97;7.33;;;;;;;;;;4971362;28;20244;-72
2023/03/13 08:04:31;;;;;;;24.73;9.00;;;;;;;;;;4963272;28;20473;-72
2023/03/13 08:06:58;;;;;;;11.27;4.50;;;;;;;;;;4948746;28;21006;-76
2023/03/13 08:09:25;;;;;;;20.90;11.57;;;;;;;;;;4977022;28;20470;-74
2023/03/13 08:11:52;;;;;;;27.87;9.93;;;;;;;;;;4961931;28;20474;-79
2023/03/13 08:14:20;;;;;;;25.77;12.53;;;;;;;;;;4976740;28;20459;-74
2023/03/13 08:16:48;;;;;;;12.97;7.10;;;;;;;;;;4977637;28;20463;-72
2023/03/13 08:19:16;;;;;;;22.50;9.27;;;;;;;;;;4965156;28;20467;-74
2023/03/13 08:21:43;;;;;;;10.10;5.70;;;;;;;;;;4979486;28;20470;-73
2023/03/13 08:24:13;;;;;;;19.90;9.13;;;;;;;;;;4947991;28;20451;-72
2023/03/13 08:26:44;;;;;;;20.20;7.77;;;;;;;;;;4936421;28;20506;-75
2023/03/13 08:29:11;;;;;;;23.47;9.63;;;;;;;;;;4975573;28;20994;-72
2023/03/13 08:31:42;;;;;;;13.47;6.97;;;;;;;;;;4978401;28;20451;-74
2023/03/13 08:34:11;;;;;;;27.93;13.17;;;;;;;;;;4959842;28;20447;-72
2023/03/13 08:36:38;;;;;;;36.10;15.97;;;;;;;;;;4977885;28;20873;-78
2023/03/13 08:39:06;;;;;;;28.20;11.03;;;;;;;;;;4977699;28;21036;-74
2023/03/13 08:41:35;;;;;;;22.73;9.23;;;;;;;;;;4960913;28;20459;-72
2023/03/13 08:44:04;;;;;;;17.47;7.40;;;;;;;;;;4963970;28;20459;-71
2023/03/13 08:46:33;;;;;;;32.13;16.60;;;;;;;;;;4963071;28;20470;-71
2023/03/13 08:49:04;;;;;;;28.30;12.50;;;;;;;;;;4978547;28;20469;-71
2023/03/13 08:51:31;;;;;;;23.47;9.53;;;;;;;;;;4980168;28;20513;-71
2023/03/13 08:53:58;;;;;;;19.30;10.07;;;;;;;;;;4920619;28;20478;-75
2023/03/13 08:56:25;;;;;;;28.13;11.10;;;;;;;;;;4954012;28;20458;-74
2023/03/13 08:59:14;;;;;;;35.83;16.53;;;;;;;;;;4964493;28;20455;-74
2023/03/13 09:01:41;;;;;;;36.70;16.57;;;;;;;;;;4950064;28;20540;-75
2023/03/13 09:04:08;;;;;;;27.77;12.97;;;;;;;;;;4982687;28;20459;-75
2023/03/13 09:06:36;;;;;;;28.33;14.00;;;;;;;;;;4982968;28;20549;-71
2023/03/13 09:09:04;;;;;;;24.97;10.37;;;;;;;;;;4981587;28;20232;-71
2023/03/13 09:11:31;;;;;;;25.93;12.37;;;;;;;;;;4949890;28;20555;-71
2023/03/13 09:13:58;;;;;;;33.93;14.63;;;;;;;;;;4979398;28;20985;-76
2023/03/13 09:16:27;;;;;;;33.20;15.90;;;;;;;;;;4980569;28;20459;-75
2023/03/13 09:18:54;;;;;;;33.70;14.37;;;;;;;;;;4966627;28;20465;-72
2023/03/13 09:21:22;;;;;;;35.07;18.33;;;;;;;;;;4964496;28;20497;-74
2023/03/13 09:23:51;;;;;;;26.30;11.90;;;;;;;;;;4972251;28;20459;-74
2023/03/13 09:26:35;;;;;;;32.33;13.40;;;;;;;;;;4956712;28;20242;-71
2023/03/13 09:29:02;;;;;;;29.70;14.97;;;;;;;;;;4971481;28;20371;-71
2023/03/13 09:31:31;;;;;;;21.03;11.27;;;;;;;;;;4981708;28;20235;-72
2023/03/13 09:34:03;;;;;;;29.70;15.23;;;;;;;;;;4982295;28;20458;-71
2023/03/13 09:36:30;;;;;;;29.60;15.57;;;;;;;;;;4967120;28;20247;-73
2023/03/13 09:38:59;;;;;;;34.30;17.50;;;;;;;;;;4981935;28;20529;-71
2023/03/13 09:41:30;;;;;;;31.70;16.37;;;;;;;;;;4965384;28;20228;-71
2023/03/13 09:44:06;;;;;;;27.53;15.77;;;;;;;;;;4981848;28;20599;-74
2023/03/13 09:46:34;;;;;;;29.00;15.00;;;;;;;;;;4979243;28;21311;-73
2023/03/13 09:49:08;;;;;;;24.90;13.13;;;;;;;;;;4983105;28;23089;-73
2023/03/13 09:51:41;;;;;;;27.40;15.13;;;;;;;;;;4995481;28;20463;-70
2023/03/13 09:54:16;;;;;;;22.13;11.03;;;;;;;;;;4994303;28;20561;-71
2023/03/13 09:56:44;;;;;;;22.07;12.30;;;;;;;;;;4981276;28;20465;-72
2023/03/13 09:59:16;;;;;;;25.43;13.10;;;;;;;;;;4979331;28;20236;-73
2023/03/13 10:01:43;;;;;;;25.07;13.50;;;;;;;;;;4981235;28;20447;-73
2023/03/13 10:04:25;;;;;;;23.17;13.23;;;;;;;;;;4981491;28;20241;-71
2023/03/13 10:06:53;;;;;;;20.30;11.50;;;;;;;;;;4982347;28;20285;-71
2023/03/13 10:09:46;;;;;;;13.23;6.90;;;;;;;;;;4980252;28;20642;-72
2023/03/13 10:12:15;;;;;;;21.50;11.23;;;;;;;;;;4979476;28;20586;-73
2023/03/13 10:14:47;;;;;;;19.47;11.67;;;;;;;;;;4979874;28;20247;-73
2023/03/13 10:17:22;;;;;;;18.07;10.10;;;;;;;;;;4979206;28;20493;-73
2023/03/13 10:19:53;;;;;;;18.30;11.17;;;;;;;;;;4980212;28;20274;-70
2023/03/13 10:22:21;;;;;;;11.87;6.73;;;;;;;;;;4980146;28;20259;-72
2023/03/13 10:24:48;;;;;;;17.30;9.33;;;;;;;;;;4940659;28;20243;-73
2023/03/13 10:27:15;;;;;;;16.43;10.53;;;;;;;;;;4979792;28;20258;-70
2023/03/13 10:29:42;;;;;;;17.07;10.10;;;;;;;;;;4979859;28;20311;-71
2023/03/13 10:32:10;;;;;;;12.23;8.03;;;;;;;;;;4997040;28;20911;-72
2023/03/13 10:34:53;;;;;;;19.80;11.37;;;;;;;;;;4977585;28;20238;-72
2023/03/13 10:37:24;;;;;;;18.50;10.33;;;;;;;;;;4980074;28;20224;-73
2023/03/13 10:39:51;;;;;;;19.20;10.97;;;;;;;;;;4964977;28;20953;-74
2023/03/13 10:42:28;;;;;;;18.07;9.83;;;;;;;;;;4995726;28;20321;-77
2023/03/13 10:44:57;;;;;;;20.83;11.90;;;;;;;;;;4980206;28;20227;-75
2023/03/13 10:47:24;;;;;;;18.87;10.97;;;;;;;;;;4920012;28;20602;-72
2023/03/13 10:49:54;;;;;;;9.83;5.87;;;;;;;;;;4952257;28;20791;-71
2023/03/13 10:52:28;;;;;;;18.90;10.60;;;;;;;;;;4980935;28;20327;-72
2023/03/13 10:54:59;;;;;;;15.13;10.10;;;;;;;;;;4978648;28;20569;-72
2023/03/13 10:57:28;;;;;;;12.57;7.27;;;;;;;;;;4964567;28;20224;-72
2023/03/13 10:59:55;;;;;;;12.27;7.93;;;;;;;;;;4976921;28;20247;-73
2023/03/13 11:02:32;;;;;;;13.57;7.97;;;;;;;;;;4963294;28;20827;-75
2023/03/13 11:05:00;;;;;;;10.03;7.07;;;;;;;;;;4978024;28;20224;-73
2023/03/13 11:07:34;;;;;;;17.67;8.60;;;;;;;;;;4995649;28;20226;-74
2023/03/13 11:10:19;;;;;;;15.77;9.03;;;;;;;;;;4961748;28;20237;-75
2023/03/13 11:12:47;;;;;;;14.17;8.67;;;;;;;;;;4971176;28;20311;-70
2023/03/13 11:15:14;;;;;;;17.27;10.07;;;;;;;;;;4979070;28;20246;-69
2023/03/13 11:17:41;;;;;;;14.80;8.13;;;;;;;;;;4974092;28;20231;-70
2023/03/13 11:20:14;;;;;;;17.07;10.20;;;;;;;;;;4979033;28;20224;-74
2023/03/13 11:22:47;;;;;;;16.10;10.13;;;;;;;;;;4960666;28;20310;-72
2023/03/13 11:25:16;;;;;;;15.17;9.50;;;;;;;;;;4929462;28;20227;-72
2023/03/13 11:27:43;;;;;;;14.67;10.27;;;;;;;;;;4962343;28;20238;-73
2023/03/13 11:30:13;;;;;;;11.27;6.57;;;;;;;;;;4961444;28;20223;-73
2023/03/13 11:32:41;;;;;;;15.23;8.03;;;;;;;;;;4978685;28;20242;-72
2023/03/13 11:35:28;;;;;;;18.20;10.77;;;;;;;;;;4967371;28;20255;-74
2023/03/13 11:37:56;;;;;;;16.73;9.73;;;;;;;;;;4946016;28;20480;-72
2023/03/13 11:40:32;;;;;;;16.23;9.83;;;;;;;;;;4976983;28;20876;-73
2023/03/13 11:43:03;;;;;;;12.67;8.00;;;;;;;;;;4976821;28;20237;-74
2023/03/13 11:45:52;;;;;;;8.83;5.23;;;;;;;;;;4976255;28;20232;-72
2023/03/13 11:48:19;;;;;;;16.13;10.13;;;;;;;;;;4977564;28;20228;-73
2023/03/13 11:51:16;;;;;;;16.97;9.37;;;;;;;;;;4979590;28;20311;-73
2023/03/13 11:53:58;;;;;;;14.40;9.27;;;;;;;;;;4925664;28;20235;-73
2023/03/13 11:56:28;;;;;;;14.77;9.73;;;;;;;;;;4979214;28;20317;-72
2023/03/13 11:59:13;;;;;;;16.07;9.17;;;;;;;;;;4977766;28;20216;-72
2023/03/13 12:01:40;;;;;;;17.90;9.90;;;;;;;;;;4974642;28;20256;-73
2023/03/13 12:04:19;;;;;;;15.30;10.00;;;;;;;;;;4961179;28;20220;-73
2023/03/13 12:06:48;;;;;;;14.90;9.40;;;;;;;;;;4950110;28;20906;-71
2023/03/13 12:09:18;;;;;;;13.17;7.60;;;;;;;;;;4973767;28;20235;-73
2023/03/13 12:11:58;;;;;;;16.30;9.93;;;;;;;;;;4963268;28;20576;-73
2023/03/13 12:14:26;;;;;;;16.87;10.57;;;;;;;;;;4946695;28;20242;-72
2023/03/13 12:16:54;;;;;;;16.93;10.93;;;;;;;;;;4981346;28;20235;-73
2023/03/13 12:19:25;;;;;;;17.17;10.13;;;;;;;;;;4943630;28;20259;-73
2023/03/13 12:21:52;;;;;;;15.63;9.60;;;;;;;;;;4961505;28;20307;-73
2023/03/13 12:24:22;;;;;;;18.10;11.20;;;;;;;;;;4950578;28;20301;-72
2023/03/13 12:26:59;;;;;;;8.90;6.03;;;;;;;;;;4971018;28;20231;-74
2023/03/13 12:29:35;;;;;;;13.30;9.33;;;;;;;;;;4936135;28;222212;-75
2023/03/13 12:32:03;;;;;;;16.70;10.47;;;;;;;;;;4962343;28;20235;-74
2023/03/13 12:34:44;;;;;;;16.47;10.10;;;;;;;;;;4962128;28;20765;-75
2023/03/13 12:37:33;;;;;;;15.90;9.63;;;;;;;;;;4975381;28;20277;-74
2023/03/13 12:40:06;;;;;;;12.97;8.90;;;;;;;;;;4944099;28;20234;-76
2023/03/13 12:42:40;;;;;;;16.77;8.80;;;;;;;;;;4974147;28;20235;-75
2023/03/13 12:45:07;;;;;;;14.27;8.77;;;;;;;;;;4977288;28;20602;-76
2023/03/13 12:47:34;;;;;;;14.73;10.03;;;;;;;;;;4976059;28;20245;-74
2023/03/13 12:50:34;;;;;;;13.97;8.83;;;;;;;;;;4977350;28;20746;-75
2023/03/13 12:53:15;;;;;;;13.53;9.50;;;;;;;;;;4978516;28;20231;-72
2023/03/13 12:55:48;;;;;;;15.90;9.80;;;;;;;;;;4977933;28;20292;-73
2023/03/13 12:58:21;;;;;;;11.00;6.23;;;;;;;;;;4938033;28;20228;-59
2023/03/13 13:00:48;;;;;;;18.37;10.27;;;;;;;;;;4963091;28;20583;-76
2023/03/13 13:03:19;;;;;;;16.73;10.60;;;;;;;;;;4961608;28;20239;-78
2023/03/13 13:06:02;;;;;;;16.97;10.53;;;;;;;;;;4978748;28;20270;-76
2023/03/13 13:08:31;;;;;;;11.13;6.90;;;;;;;;;;4943882;28;214563;-76
2023/03/13 13:11:17;;;;;;;13.77;8.17;;;;;;;;;;4913353;28;20761;-77
2023/03/13 13:13:44;;;;;;;14.27;8.20;;;;;;;;;;4962707;28;20284;-75
2023/03/13 13:16:12;;;;;;;15.63;8.90;;;;;;;;;;4979419;28;20228;-78
2023/03/13 13:18:39;;;;;;;10.27;5.70;;;;;;;;;;4947870;28;31352;-79
2023/03/13 13:21:06;;;;;;;7.47;5.23;;;;;;;;;;4977698;28;20236;-76
2023/03/13 13:23:38;;;;;;;11.83;6.70;;;;;;;;;;4964030;28;20239;-79
2023/03/13 13:26:23;;;;;;;15.53;8.53;;;;;;;;;;4973244;28;220066;-79
2023/03/13 13:28:50;;;;;;;5.70;4.13;;;;;;;;;;4982392;28;20239;-78
2023/03/13 13:31:35;;;;;;;10.37;7.43;;;;;;;;;;4981342;28;20573;-77
2023/03/13 13:34:02;;;;;;;8.67;5.47;;;;;;;;;;4979862;28;20995;-77
2023/03/13 13:36:29;;;;;;;8.07;5.30;;;;;;;;;;4977182;28;20246;-78
2023/03/13 13:38:56;;;;;;;10.37;6.63;;;;;;;;;;4984370;28;20311;-78
2023/03/13 13:41:25;;;;;;;7.00;5.13;;;;;;;;;;4971243;28;20232;-78
2023/03/13 13:44:10;;;;;;;6.33;4.50;;;;;;;;;;4969406;28;20255;-77
2023/03/13 13:46:39;;;;;;;7.40;5.50;;;;;;;;;;4960277;28;221981;-72
2023/03/13 13:49:06;;;;;;;9.83;6.53;;;;;;;;;;4966002;28;20231;-78
2023/03/13 13:51:36;;;;;;;8.53;5.43;;;;;;;;;;4985197;28;22502;-76
2023/03/13 13:54:08;;;;;;;10.77;4.53;;;;;;;;;;4964985;28;20224;-75
2023/03/13 13:56:41;;;;;;;10.60;6.83;;;;;;;;;;4982765;28;20306;-77
2023/03/13 13:59:17;;;;;;;8.07;6.37;;;;;;;;;;4983289;28;20309;-78
2023/03/13 14:01:44;;;;;;;6.30;3.27;;;;;;;;;;4967060;28;20231;-78
2023/03/13 14:04:34;;;;;;;5.40;3.53;;;;;;;;;;4985500;28;20596;-79
2023/03/13 14:07:02;;;;;;;10.77;5.00;;;;;;;;;;4919528;28;20254;-75
2023/03/13 14:09:34;;;;;;;7.43;3.93;;;;;;;;;;4928315;28;20227;-78
2023/03/13 14:12:23;;;;;;;9.70;3.37;;;;;;;;;;4963343;28;20582;-78
2023/03/13 14:15:10;;;;;;;8.07;4.53;;;;;;;;;;4982576;28;20235;-77
2023/03/13 14:17:40;;;;;;;7.57;3.80;;;;;;;;;;4962746;28;20845;-76
2023/03/13 14:20:16;;;;;;;9.13;5.93;;;;;;;;;;4939117;28;20227;-78
2023/03/13 14:22:45;;;;;;;8.07;4.93;;;;;;;;;;4978275;28;20929;-75
2023/03/13 14:25:11;;;;;;;7.20;3.87;;;;;;;;;;4927525;28;20228;-75
2023/03/13 14:27:42;;;;;;;7.97;5.83;;;;;;;;;;4951491;28;20742;-76
2023/03/13 14:30:09;;;;;;;6.83;4.07;;;;;;;;;;4949224;28;20227;-74
2023/03/13 14:32:36;;;;;;;6.80;4.27;;;;;;;;;;4950819;28;20236;-75
2023/03/13 14:35:06;;;;;;;6.53;3.93;;;;;;;;;;4978235;28;20220;-73
2023/03/13 14:37:34;;;;;;;4.53;2.97;;;;;;;;;;4979477;28;20236;-76
2023/03/13 14:40:08;;;;;;;9.97;6.37;;;;;;;;;;4963666;28;20235;-78
2023/03/13 14:42:39;;;;;;;8.30;4.93;;;;;;;;;;4954496;28;220270;-79
2023/03/13 14:45:13;;;;;;;8.00;4.77;;;;;;;;;;4962339;28;20323;-79
2023/03/13 14:47:40;;;;;;;5.87;3.80;;;;;;;;;;4949731;28;220192;-74
2023/03/13 14:50:10;;;;;;;9.03;5.03;;;;;;;;;;4949236;28;20220;-78
2023/03/13 14:52:40;;;;;;;6.60;4.03;;;;;;;;;;4949814;28;20232;-74
2023/03/13 14:55:20;;;;;;;5.80;4.37;;;;;;;;;;4934357;28;20337;-76
2023/03/13 14:57:54;;;;;;;9.63;6.30;;;;;;;;;;4911269;28;20745;-73
2023/03/13 15:00:40;;;;;;;6.53;4.43;;;;;;;;;;4929762;28;226868;-72
2023/03/13 15:03:27;;;;;;;9.43;5.83;;;;;;;;;;4933123;28;20331;-72
2023/03/13 15:06:06;;;;;;;7.17;4.87;;;;;;;;;;4961712;28;20228;-74
2023/03/13 15:08:39;;;;;;;5.93;3.30;;;;;;;;;;4950687;28;20239;-78
2023/03/13 15:11:26;;;;;;;7.17;4.57;;;;;;;;;;4924231;28;20231;-77
2023/03/13 15:13:53;;;;;;;6.33;3.93;;;;;;;;;;4953330;28;20232;-77
2023/03/13 15:16:21;;;;;;;5.37;3.37;;;;;;;;;;4922214;28;20228;-74
2023/03/13 15:18:48;;;;;;;5.23;3.20;;;;;;;;;;4958497;28;214278;-75
2023/03/13 15:21:18;;;;;;;9.00;5.30;;;;;;;;;;4951260;28;20227;-74
2023/03/13 15:23:47;;;;;;;8.00;5.23;;;;;;;;;;4958549;28;20228;-76
2023/03/13 15:26:14;;;;;;;8.73;5.67;;;;;;;;;;4980833;28;20662;-76
2023/03/13 15:28:41;;;;;;;8.50;6.23;;;;;;;;;;4978974;28;20277;-74